Accueil
METAR-TAF:

METAR-TAF

Aéroports :

Chamberlain Municipal Airport

Chamberlain, Dakota du Sud, États-Unis

latitude: 43-46-00N, longitude: 099-19-06W, altitude: 516 m

Observation

Le bulletin a été fait il y a 12 minutes, à 16:35 UTC
Vent 6 kt de ouest/sud-ouest
Température 2°C
Humidité 93%
Pression 1025 hPa
Visibilité: 16.1 km
Ciel clair

METAR: K9V9 141635Z AUTO 24006KT 10SM CLR 02/01 A3028 RMK AO2 T00230014

Heure: 10:47 (16:47 UTC)


TAF: absent

Observations et prévisions météorologiques de plus de 4000 aéroports (messages METAR et TAF).

Les stations disponibles sont représentées par des disques jaunes et rouges sur la carte.

Passer la souris dessus pour voir le nom de la station.

Cliquer dessus pour voir les observations et prévisions météorologiques.

Pour changer de carte: cliquez sur les boutons verts avec une croix noire pour zoomer, sur le bouton vert avec un tiret pour effectuer un zoom arrière, ou sur les flèches vertes pour les cartes adjacentes.


METAR-TAF: